sensor_id;sensor_type;location;lat;lon;timestamp;P1;durP1;ratioP1;P2;durP2;ratioP2
78288;SDS011;67539;48.752;12.922;2024-02-15T00:01:10;8.35;;;5.97;;
78288;SDS011;67539;48.752;12.922;2024-02-15T00:03:40;7.38;;;5.60;;
78288;SDS011;67539;48.752;12.922;2024-02-15T00:06:08;8.88;;;6.32;;
78288;SDS011;67539;48.752;12.922;2024-02-15T00:08:36;7.65;;;6.18;;
78288;SDS011;67539;48.752;12.922;2024-02-15T00:11:04;8.20;;;6.75;;
78288;SDS011;67539;48.752;12.922;2024-02-15T00:13:35;7.20;;;5.90;;
78288;SDS011;67539;48.752;12.922;2024-02-15T00:16:03;8.48;;;5.80;;
78288;SDS011;67539;48.752;12.922;2024-02-15T00:18:32;6.40;;;5.55;;
78288;SDS011;67539;48.752;12.922;2024-02-15T00:21:02;8.30;;;6.25;;
78288;SDS011;67539;48.752;12.922;2024-02-15T00:23:32;7.35;;;6.15;;
78288;SDS011;67539;48.752;12.922;2024-02-15T00:26:00;8.35;;;5.53;;
78288;SDS011;67539;48.752;12.922;2024-02-15T00:28:28;7.30;;;6.05;;
78288;SDS011;67539;48.752;12.922;2024-02-15T00:30:56;6.25;;;5.50;;
78288;SDS011;67539;48.752;12.922;2024-02-15T00:33:25;8.10;;;6.43;;
78288;SDS011;67539;48.752;12.922;2024-02-15T00:35:53;8.27;;;6.32;;
78288;SDS011;67539;48.752;12.922;2024-02-15T00:38:23;7.72;;;6.03;;
78288;SDS011;67539;48.752;12.922;2024-02-15T00:40:52;8.40;;;5.45;;
78288;SDS011;67539;48.752;12.922;2024-02-15T00:43:20;6.50;;;5.10;;
78288;SDS011;67539;48.752;12.922;2024-02-15T00:45:49;8.40;;;6.00;;
78288;SDS011;67539;48.752;12.922;2024-02-15T00:48:17;8.70;;;6.78;;
78288;SDS011;67539;48.752;12.922;2024-02-15T00:50:45;6.90;;;5.63;;
78288;SDS011;67539;48.752;12.922;2024-02-15T00:53:14;7.97;;;6.60;;
78288;SDS011;67539;48.752;12.922;2024-02-15T00:55:44;9.32;;;6.05;;
78288;SDS011;67539;48.752;12.922;2024-02-15T00:58:12;7.18;;;6.05;;
78288;SDS011;67539;48.752;12.922;2024-02-15T01:00:41;6.70;;;5.95;;
78288;SDS011;67539;48.752;12.922;2024-02-15T01:03:09;7.47;;;5.90;;
78288;SDS011;67539;48.752;12.922;2024-02-15T01:05:38;7.45;;;6.10;;
78288;SDS011;67539;48.752;12.922;2024-02-15T01:08:06;7.05;;;6.05;;
78288;SDS011;67539;48.752;12.922;2024-02-15T01:10:35;8.27;;;6.22;;
78288;SDS011;67539;48.752;12.922;2024-02-15T01:13:05;6.20;;;5.57;;
78288;SDS011;67539;48.752;12.922;2024-02-15T01:15:33;7.22;;;5.78;;
78288;SDS011;67539;48.752;12.922;2024-02-15T01:18:03;8.45;;;6.22;;
78288;SDS011;67539;48.752;12.922;2024-02-15T01:20:32;6.93;;;6.03;;
78288;SDS011;67539;48.752;12.922;2024-02-15T01:23:00;6.38;;;5.43;;
78288;SDS011;67539;48.752;12.922;2024-02-15T01:25:28;7.07;;;5.53;;
78288;SDS011;67539;48.752;12.922;2024-02-15T01:27:56;9.55;;;6.47;;
78288;SDS011;67539;48.752;12.922;2024-02-15T01:30:26;6.95;;;5.72;;
78288;SDS011;67539;48.752;12.922;2024-02-15T01:32:55;7.15;;;6.20;;
78288;SDS011;67539;48.752;12.922;2024-02-15T01:35:23;8.10;;;6.47;;
78288;SDS011;67539;48.752;12.922;2024-02-15T01:37:52;8.15;;;6.47;;
78288;SDS011;67539;48.752;12.922;2024-02-15T01:40:20;8.13;;;6.05;;
78288;SDS011;67539;48.752;12.922;2024-02-15T01:42:49;9.00;;;6.45;;
78288;SDS011;67539;48.752;12.922;2024-02-15T01:45:16;7.80;;;6.00;;
78288;SDS011;67539;48.752;12.922;2024-02-15T01:47:46;9.40;;;6.80;;
78288;SDS011;67539;48.752;12.922;2024-02-15T01:50:15;8.52;;;5.95;;
78288;SDS011;67539;48.752;12.922;2024-02-15T01:52:45;8.75;;;7.53;;
78288;SDS011;67539;48.752;12.922;2024-02-15T01:55:15;7.25;;;5.93;;
78288;SDS011;67539;48.752;12.922;2024-02-15T01:57:45;7.72;;;6.25;;
78288;SDS011;67539;48.752;12.922;2024-02-15T02:00:14;6.93;;;6.22;;
78288;SDS011;67539;48.752;12.922;2024-02-15T02:02:46;8.60;;;6.32;;
78288;SDS011;67539;48.752;12.922;2024-02-15T02:05:15;9.10;;;6.50;;
78288;SDS011;67539;48.752;12.922;2024-02-15T02:07:44;10.05;;;6.85;;
78288;SDS011;67539;48.752;12.922;2024-02-15T02:10:12;6.65;;;5.88;;
78288;SDS011;67539;48.752;12.922;2024-02-15T02:12:42;9.20;;;6.13;;
78288;SDS011;67539;48.752;12.922;2024-02-15T02:15:10;7.25;;;6.32;;
78288;SDS011;67539;48.752;12.922;2024-02-15T02:17:38;10.93;;;6.60;;
78288;SDS011;67539;48.752;12.922;2024-02-15T02:20:09;8.25;;;6.57;;
78288;SDS011;67539;48.752;12.922;2024-02-15T02:22:40;8.43;;;7.03;;
78288;SDS011;67539;48.752;12.922;2024-02-15T02:25:13;9.07;;;6.70;;
78288;SDS011;67539;48.752;12.922;2024-02-15T02:27:41;7.47;;;6.53;;
78288;SDS011;67539;48.752;12.922;2024-02-15T02:30:12;7.57;;;6.18;;
78288;SDS011;67539;48.752;12.922;2024-02-15T02:32:44;8.57;;;5.70;;
78288;SDS011;67539;48.752;12.922;2024-02-15T02:35:13;6.78;;;5.78;;
78288;SDS011;67539;48.752;12.922;2024-02-15T02:37:42;6.93;;;5.95;;
78288;SDS011;67539;48.752;12.922;2024-02-15T02:40:11;6.68;;;5.47;;
78288;SDS011;67539;48.752;12.922;2024-02-15T02:42:48;6.43;;;5.78;;
78288;SDS011;67539;48.752;12.922;2024-02-15T02:45:17;7.85;;;5.57;;
78288;SDS011;67539;48.752;12.922;2024-02-15T02:47:49;6.00;;;5.20;;
78288;SDS011;67539;48.752;12.922;2024-02-15T02:50:20;7.57;;;6.22;;
78288;SDS011;67539;48.752;12.922;2024-02-15T02:52:49;7.80;;;6.22;;
78288;SDS011;67539;48.752;12.922;2024-02-15T02:55:19;7.38;;;5.80;;
78288;SDS011;67539;48.752;12.922;2024-02-15T02:57:48;8.75;;;6.03;;
78288;SDS011;67539;48.752;12.922;2024-02-15T03:00:16;8.65;;;6.40;;
78288;SDS011;67539;48.752;12.922;2024-02-15T03:02:46;8.57;;;6.30;;
78288;SDS011;67539;48.752;12.922;2024-02-15T03:05:15;7.63;;;6.00;;
78288;SDS011;67539;48.752;12.922;2024-02-15T03:07:44;9.02;;;6.25;;
78288;SDS011;67539;48.752;12.922;2024-02-15T03:10:12;9.77;;;6.30;;
78288;SDS011;67539;48.752;12.922;2024-02-15T03:12:43;6.70;;;6.00;;
78288;SDS011;67539;48.752;12.922;2024-02-15T03:15:15;7.47;;;6.30;;
78288;SDS011;67539;48.752;12.922;2024-02-15T03:17:46;7.15;;;6.45;;
78288;SDS011;67539;48.752;12.922;2024-02-15T03:20:16;8.57;;;5.72;;
78288;SDS011;67539;48.752;12.922;2024-02-15T03:22:52;7.63;;;6.18;;
78288;SDS011;67539;48.752;12.922;2024-02-15T03:25:21;7.65;;;5.65;;
78288;SDS011;67539;48.752;12.922;2024-02-15T03:27:53;9.43;;;6.93;;
78288;SDS011;67539;48.752;12.922;2024-02-15T03:30:23;8.65;;;6.47;;
78288;SDS011;67539;48.752;12.922;2024-02-15T03:32:53;8.27;;;5.97;;
78288;SDS011;67539;48.752;12.922;2024-02-15T03:35:22;7.40;;;6.60;;
78288;SDS011;67539;48.752;12.922;2024-02-15T03:37:52;8.57;;;6.53;;
78288;SDS011;67539;48.752;12.922;2024-02-15T03:40:20;8.82;;;7.05;;
78288;SDS011;67539;48.752;12.922;2024-02-15T03:42:49;7.45;;;6.07;;
78288;SDS011;67539;48.752;12.922;2024-02-15T03:45:19;6.43;;;5.35;;
78288;SDS011;67539;48.752;12.922;2024-02-15T03:47:47;7.70;;;5.55;;
78288;SDS011;67539;48.752;12.922;2024-02-15T03:50:16;7.05;;;6.05;;
78288;SDS011;67539;48.752;12.922;2024-02-15T03:52:45;7.72;;;5.65;;
78288;SDS011;67539;48.752;12.922;2024-02-15T03:55:14;7.65;;;5.85;;
78288;SDS011;67539;48.752;12.922;2024-02-15T03:57:42;6.90;;;6.10;;
78288;SDS011;67539;48.752;12.922;2024-02-15T04:00:12;7.68;;;6.03;;
78288;SDS011;67539;48.752;12.922;2024-02-15T04:02:43;6.07;;;5.13;;
78288;SDS011;67539;48.752;12.922;2024-02-15T04:05:13;7.22;;;5.55;;
78288;SDS011;67539;48.752;12.922;2024-02-15T04:07:42;6.65;;;5.78;;
78288;SDS011;67539;48.752;12.922;2024-02-15T04:10:10;7.97;;;5.75;;
78288;SDS011;67539;48.752;12.922;2024-02-15T04:12:39;8.45;;;5.47;;
78288;SDS011;67539;48.752;12.922;2024-02-15T04:15:09;7.25;;;6.20;;
78288;SDS011;67539;48.752;12.922;2024-02-15T04:17:41;7.15;;;5.60;;
78288;SDS011;67539;48.752;12.922;2024-02-15T04:20:12;9.70;;;6.00;;
78288;SDS011;67539;48.752;12.922;2024-02-15T04:22:42;6.90;;;5.78;;
78288;SDS011;67539;48.752;12.922;2024-02-15T04:25:11;7.88;;;6.05;;
78288;SDS011;67539;48.752;12.922;2024-02-15T04:27:44;8.18;;;5.63;;
78288;SDS011;67539;48.752;12.922;2024-02-15T04:30:13;10.02;;;5.97;;
78288;SDS011;67539;48.752;12.922;2024-02-15T04:32:43;8.35;;;6.50;;
78288;SDS011;67539;48.752;12.922;2024-02-15T04:35:12;7.25;;;6.43;;
78288;SDS011;67539;48.752;12.922;2024-02-15T04:37:41;8.68;;;6.07;;
78288;SDS011;67539;48.752;12.922;2024-02-15T04:40:09;7.50;;;6.28;;
78288;SDS011;67539;48.752;12.922;2024-02-15T04:42:40;6.50;;;5.82;;
78288;SDS011;67539;48.752;12.922;2024-02-15T04:45:11;6.28;;;5.28;;
78288;SDS011;67539;48.752;12.922;2024-02-15T04:47:42;7.00;;;6.05;;
78288;SDS011;67539;48.752;12.922;2024-02-15T04:50:14;8.95;;;6.43;;
78288;SDS011;67539;48.752;12.922;2024-02-15T04:52:45;6.68;;;5.97;;
78288;SDS011;67539;48.752;12.922;2024-02-15T04:55:16;7.35;;;5.57;;
78288;SDS011;67539;48.752;12.922;2024-02-15T04:57:44;9.25;;;6.72;;
78288;SDS011;67539;48.752;12.922;2024-02-15T05:00:15;7.97;;;5.85;;
78288;SDS011;67539;48.752;12.922;2024-02-15T05:02:47;8.75;;;6.20;;
78288;SDS011;67539;48.752;12.922;2024-02-15T05:05:17;7.93;;;6.57;;
78288;SDS011;67539;48.752;12.922;2024-02-15T05:07:46;9.15;;;6.38;;
78288;SDS011;67539;48.752;12.922;2024-02-15T05:10:15;9.23;;;6.43;;
78288;SDS011;67539;48.752;12.922;2024-02-15T05:12:44;8.20;;;6.47;;
78288;SDS011;67539;48.752;12.922;2024-02-15T05:15:15;7.78;;;6.95;;
78288;SDS011;67539;48.752;12.922;2024-02-15T05:17:44;10.68;;;6.05;;
78288;SDS011;67539;48.752;12.922;2024-02-15T05:20:15;8.68;;;6.50;;
78288;SDS011;67539;48.752;12.922;2024-02-15T05:22:44;7.38;;;6.57;;
78288;SDS011;67539;48.752;12.922;2024-02-15T05:25:16;7.40;;;6.45;;
78288;SDS011;67539;48.752;12.922;2024-02-15T05:27:51;9.20;;;7.45;;
78288;SDS011;67539;48.752;12.922;2024-02-15T05:30:22;8.52;;;6.63;;
78288;SDS011;67539;48.752;12.922;2024-02-15T05:32:51;9.68;;;6.88;;
78288;SDS011;67539;48.752;12.922;2024-02-15T05:35:21;9.88;;;6.93;;
78288;SDS011;67539;48.752;12.922;2024-02-15T05:37:51;8.02;;;7.03;;
78288;SDS011;67539;48.752;12.922;2024-02-15T05:40:20;8.57;;;5.93;;
78288;SDS011;67539;48.752;12.922;2024-02-15T05:42:49;9.88;;;5.93;;
78288;SDS011;67539;48.752;12.922;2024-02-15T05:45:30;8.57;;;6.38;;
78288;SDS011;67539;48.752;12.922;2024-02-15T05:48:03;8.07;;;6.30;;
78288;SDS011;67539;48.752;12.922;2024-02-15T05:50:35;7.13;;;6.00;;
78288;SDS011;67539;48.752;12.922;2024-02-15T05:53:05;7.43;;;6.03;;
78288;SDS011;67539;48.752;12.922;2024-02-15T05:55:34;7.07;;;5.22;;
78288;SDS011;67539;48.752;12.922;2024-02-15T05:58:04;8.18;;;5.88;;
78288;SDS011;67539;48.752;12.922;2024-02-15T06:00:34;8.98;;;6.15;;
78288;SDS011;67539;48.752;12.922;2024-02-15T06:03:05;5.90;;;5.30;;
78288;SDS011;67539;48.752;12.922;2024-02-15T06:05:35;9.05;;;6.80;;
78288;SDS011;67539;48.752;12.922;2024-02-15T06:08:06;7.45;;;5.78;;
78288;SDS011;67539;48.752;12.922;2024-02-15T06:10:34;8.15;;;6.65;;
78288;SDS011;67539;48.752;12.922;2024-02-15T06:13:02;9.60;;;6.70;;
78288;SDS011;67539;48.752;12.922;2024-02-15T06:15:30;8.98;;;7.32;;
78288;SDS011;67539;48.752;12.922;2024-02-15T06:17:59;8.32;;;7.07;;
78288;SDS011;67539;48.752;12.922;2024-02-15T06:20:28;7.63;;;6.75;;
78288;SDS011;67539;48.752;12.922;2024-02-15T06:22:57;9.05;;;7.57;;
78288;SDS011;67539;48.752;12.922;2024-02-15T06:25:25;14.75;;;10.45;;
78288;SDS011;67539;48.752;12.922;2024-02-15T06:27:53;20.33;;;16.63;;
78288;SDS011;67539;48.752;12.922;2024-02-15T06:30:26;14.10;;;11.55;;
78288;SDS011;67539;48.752;12.922;2024-02-15T06:33:20;12.80;;;10.35;;
78288;SDS011;67539;48.752;12.922;2024-02-15T06:36:06;12.07;;;10.15;;
78288;SDS011;67539;48.752;12.922;2024-02-15T06:38:52;13.90;;;10.68;;
78288;SDS011;67539;48.752;12.922;2024-02-15T06:41:39;9.82;;;8.27;;
78288;SDS011;67539;48.752;12.922;2024-02-15T06:44:07;9.18;;;7.28;;
78288;SDS011;67539;48.752;12.922;2024-02-15T06:46:36;9.15;;;7.18;;
78288;SDS011;67539;48.752;12.922;2024-02-15T06:49:04;8.10;;;6.38;;
78288;SDS011;67539;48.752;12.922;2024-02-15T06:51:32;7.22;;;6.15;;
78288;SDS011;67539;48.752;12.922;2024-02-15T06:54:01;7.63;;;6.03;;
78288;SDS011;67539;48.752;12.922;2024-02-15T06:56:29;9.32;;;6.63;;
78288;SDS011;67539;48.752;12.922;2024-02-15T06:58:59;7.40;;;5.78;;
78288;SDS011;67539;48.752;12.922;2024-02-15T07:01:27;7.80;;;6.85;;
78288;SDS011;67539;48.752;12.922;2024-02-15T07:03:55;7.40;;;5.93;;
78288;SDS011;67539;48.752;12.922;2024-02-15T07:06:25;6.80;;;5.70;;
78288;SDS011;67539;48.752;12.922;2024-02-15T07:08:54;8.85;;;7.03;;
78288;SDS011;67539;48.752;12.922;2024-02-15T07:11:24;10.95;;;7.07;;
78288;SDS011;67539;48.752;12.922;2024-02-15T07:13:52;7.38;;;6.50;;
78288;SDS011;67539;48.752;12.922;2024-02-15T07:16:22;8.00;;;6.40;;
78288;SDS011;67539;48.752;12.922;2024-02-15T07:18:50;7.90;;;6.28;;
78288;SDS011;67539;48.752;12.922;2024-02-15T07:21:20;11.15;;;6.88;;
78288;SDS011;67539;48.752;12.922;2024-02-15T07:23:52;7.40;;;6.05;;
78288;SDS011;67539;48.752;12.922;2024-02-15T07:26:22;7.22;;;6.63;;
78288;SDS011;67539;48.752;12.922;2024-02-15T07:28:52;7.65;;;6.25;;
78288;SDS011;67539;48.752;12.922;2024-02-15T07:31:20;10.45;;;7.50;;
78288;SDS011;67539;48.752;12.922;2024-02-15T07:33:50;9.30;;;6.95;;
78288;SDS011;67539;48.752;12.922;2024-02-15T07:36:20;7.78;;;6.95;;
78288;SDS011;67539;48.752;12.922;2024-02-15T07:38:49;8.25;;;6.30;;
78288;SDS011;67539;48.752;12.922;2024-02-15T07:41:18;8.00;;;6.28;;
78288;SDS011;67539;48.752;12.922;2024-02-15T07:43:49;7.53;;;6.05;;
78288;SDS011;67539;48.752;12.922;2024-02-15T07:46:18;6.95;;;6.13;;
78288;SDS011;67539;48.752;12.922;2024-02-15T07:48:48;7.47;;;5.75;;
78288;SDS011;67539;48.752;12.922;2024-02-15T07:51:17;7.88;;;6.13;;
78288;SDS011;67539;48.752;12.922;2024-02-15T07:53:47;7.57;;;6.20;;
78288;SDS011;67539;48.752;12.922;2024-02-15T07:56:17;8.18;;;6.13;;
78288;SDS011;67539;48.752;12.922;2024-02-15T07:58:48;8.50;;;6.78;;
78288;SDS011;67539;48.752;12.922;2024-02-15T08:01:20;8.13;;;6.30;;
78288;SDS011;67539;48.752;12.922;2024-02-15T08:03:52;7.65;;;6.43;;
78288;SDS011;67539;48.752;12.922;2024-02-15T08:06:21;7.43;;;6.40;;
78288;SDS011;67539;48.752;12.922;2024-02-15T08:08:52;8.20;;;6.22;;
78288;SDS011;67539;48.752;12.922;2024-02-15T08:11:21;8.23;;;6.72;;
78288;SDS011;67539;48.752;12.922;2024-02-15T08:13:50;7.45;;;6.05;;
78288;SDS011;67539;48.752;12.922;2024-02-15T08:16:21;10.70;;;5.72;;
78288;SDS011;67539;48.752;12.922;2024-02-15T08:18:52;8.93;;;5.75;;
78288;SDS011;67539;48.752;12.922;2024-02-15T08:21:25;9.27;;;6.20;;
78288;SDS011;67539;48.752;12.922;2024-02-15T08:23:56;7.13;;;5.57;;
78288;SDS011;67539;48.752;12.922;2024-02-15T08:26:25;10.00;;;6.82;;
78288;SDS011;67539;48.752;12.922;2024-02-15T08:28:53;7.57;;;6.68;;
78288;SDS011;67539;48.752;12.922;2024-02-15T08:31:22;11.52;;;7.07;;
78288;SDS011;67539;48.752;12.922;2024-02-15T08:33:52;10.27;;;9.05;;
78288;SDS011;67539;48.752;12.922;2024-02-15T08:36:21;11.35;;;9.35;;
78288;SDS011;67539;48.752;12.922;2024-02-15T08:38:50;12.27;;;8.23;;
78288;SDS011;67539;48.752;12.922;2024-02-15T08:41:18;13.70;;;10.00;;
78288;SDS011;67539;48.752;12.922;2024-02-15T08:43:47;12.73;;;11.45;;
78288;SDS011;67539;48.752;12.922;2024-02-15T08:46:15;15.02;;;12.40;;
78288;SDS011;67539;48.752;12.922;2024-02-15T08:48:44;18.05;;;14.43;;
78288;SDS011;67539;48.752;12.922;2024-02-15T08:51:15;19.20;;;13.35;;
78288;SDS011;67539;48.752;12.922;2024-02-15T08:53:46;17.98;;;12.57;;
78288;SDS011;67539;48.752;12.922;2024-02-15T08:56:14;13.55;;;11.02;;
78288;SDS011;67539;48.752;12.922;2024-02-15T08:58:42;13.20;;;10.18;;
78288;SDS011;67539;48.752;12.922;2024-02-15T09:01:10;13.55;;;9.05;;
78288;SDS011;67539;48.752;12.922;2024-02-15T09:03:40;11.00;;;9.05;;
78288;SDS011;67539;48.752;12.922;2024-02-15T09:06:09;10.07;;;8.90;;
78288;SDS011;67539;48.752;12.922;2024-02-15T09:08:38;8.45;;;6.93;;
78288;SDS011;67539;48.752;12.922;2024-02-15T09:11:06;9.90;;;6.03;;
78288;SDS011;67539;48.752;12.922;2024-02-15T09:13:38;6.65;;;5.88;;
78288;SDS011;67539;48.752;12.922;2024-02-15T09:16:07;8.02;;;5.88;;
78288;SDS011;67539;48.752;12.922;2024-02-15T09:18:35;8.45;;;6.20;;
78288;SDS011;67539;48.752;12.922;2024-02-15T09:21:04;8.20;;;5.80;;
78288;SDS011;67539;48.752;12.922;2024-02-15T09:23:33;6.82;;;5.88;;
78288;SDS011;67539;48.752;12.922;2024-02-15T09:26:02;7.35;;;5.70;;
78288;SDS011;67539;48.752;12.922;2024-02-15T09:28:31;8.93;;;6.35;;
78288;SDS011;67539;48.752;12.922;2024-02-15T09:30:59;6.78;;;5.55;;
78288;SDS011;67539;48.752;12.922;2024-02-15T09:33:28;9.23;;;6.05;;
78288;SDS011;67539;48.752;12.922;2024-02-15T09:35:56;8.93;;;6.05;;
78288;SDS011;67539;48.752;12.922;2024-02-15T09:38:25;7.90;;;5.47;;
78288;SDS011;67539;48.752;12.922;2024-02-15T09:40:53;7.45;;;5.72;;
78288;SDS011;67539;48.752;12.922;2024-02-15T09:43:23;6.45;;;5.25;;
78288;SDS011;67539;48.752;12.922;2024-02-15T09:45:53;7.78;;;6.05;;
78288;SDS011;67539;48.752;12.922;2024-02-15T09:48:22;7.15;;;5.63;;
78288;SDS011;67539;48.752;12.922;2024-02-15T09:50:53;6.20;;;5.60;;
78288;SDS011;67539;48.752;12.922;2024-02-15T09:53:22;8.50;;;6.60;;
78288;SDS011;67539;48.752;12.922;2024-02-15T09:55:53;7.35;;;6.15;;
78288;SDS011;67539;48.752;12.922;2024-02-15T09:58:21;8.77;;;5.40;;
78288;SDS011;67539;48.752;12.922;2024-02-15T10:00:51;6.70;;;5.35;;
78288;SDS011;67539;48.752;12.922;2024-02-15T10:03:20;7.75;;;5.88;;
78288;SDS011;67539;48.752;12.922;2024-02-15T10:05:50;7.10;;;5.53;;
78288;SDS011;67539;48.752;12.922;2024-02-15T10:08:19;6.65;;;5.88;;
78288;SDS011;67539;48.752;12.922;2024-02-15T10:10:48;8.23;;;6.10;;
78288;SDS011;67539;48.752;12.922;2024-02-15T10:18:51;6.22;;;5.00;;
78288;SDS011;67539;48.752;12.922;2024-02-15T10:21:23;6.85;;;5.22;;
78288;SDS011;67539;48.752;12.922;2024-02-15T10:24:01;7.00;;;5.20;;
78288;SDS011;67539;48.752;12.922;2024-02-15T10:26:33;6.28;;;5.00;;
78288;SDS011;67539;48.752;12.922;2024-02-15T10:29:05;7.25;;;4.90;;
78288;SDS011;67539;48.752;12.922;2024-02-15T10:31:38;6.25;;;4.55;;
78288;SDS011;67539;48.752;12.922;2024-02-15T10:34:08;5.05;;;4.15;;
78288;SDS011;67539;48.752;12.922;2024-02-15T10:36:38;6.20;;;4.53;;
78288;SDS011;67539;48.752;12.922;2024-02-15T10:39:12;5.95;;;4.90;;
78288;SDS011;67539;48.752;12.922;2024-02-15T10:41:47;6.63;;;5.18;;
78288;SDS011;67539;48.752;12.922;2024-02-15T10:44:17;5.00;;;3.95;;
78288;SDS011;67539;48.752;12.922;2024-02-15T10:46:48;5.78;;;4.63;;
78288;SDS011;67539;48.752;12.922;2024-02-15T10:49:19;7.03;;;5.10;;
78288;SDS011;67539;48.752;12.922;2024-02-15T10:51:50;6.78;;;4.72;;
78288;SDS011;67539;48.752;12.922;2024-02-15T10:54:25;7.20;;;4.47;;
78288;SDS011;67539;48.752;12.922;2024-02-15T10:57:06;7.97;;;4.65;;
78288;SDS011;67539;48.752;12.922;2024-02-15T10:59:37;7.00;;;4.90;;
78288;SDS011;67539;48.752;12.922;2024-02-15T11:02:17;5.53;;;4.22;;
78288;SDS011;67539;48.752;12.922;2024-02-15T11:04:53;8.93;;;4.85;;
78288;SDS011;67539;48.752;12.922;2024-02-15T11:07:24;7.75;;;4.60;;
78288;SDS011;67539;48.752;12.922;2024-02-15T11:09:58;6.93;;;4.65;;
78288;SDS011;67539;48.752;12.922;2024-02-15T11:12:27;5.05;;;3.90;;
78288;SDS011;67539;48.752;12.922;2024-02-15T11:14:57;7.15;;;4.82;;
78288;SDS011;67539;48.752;12.922;2024-02-15T11:23:26;5.65;;;4.07;;
78288;SDS011;67539;48.752;12.922;2024-02-15T11:25:57;6.05;;;4.28;;
78288;SDS011;67539;48.752;12.922;2024-02-15T11:28:39;6.32;;;3.97;;
78288;SDS011;67539;48.752;12.922;2024-02-15T11:40:18;9.00;;;5.40;;
78288;SDS011;67539;48.752;12.922;2024-02-15T11:42:49;6.30;;;4.63;;
78288;SDS011;67539;48.752;12.922;2024-02-15T11:45:19;6.03;;;4.53;;
78288;SDS011;67539;48.752;12.922;2024-02-15T11:47:49;6.53;;;5.75;;
78288;SDS011;67539;48.752;12.922;2024-02-15T11:50:20;9.93;;;8.60;;
78288;SDS011;67539;48.752;12.922;2024-02-15T11:52:51;9.55;;;8.23;;
78288;SDS011;67539;48.752;12.922;2024-02-15T11:55:20;8.48;;;7.22;;
78288;SDS011;67539;48.752;12.922;2024-02-15T11:57:55;10.82;;;8.40;;
78288;SDS011;67539;48.752;12.922;2024-02-15T12:00:31;10.25;;;9.20;;
78288;SDS011;67539;48.752;12.922;2024-02-15T12:03:18;7.80;;;6.85;;
78288;SDS011;67539;48.752;12.922;2024-02-15T12:06:06;6.40;;;5.45;;
78288;SDS011;67539;48.752;12.922;2024-02-15T12:08:53;5.93;;;4.70;;
78288;SDS011;67539;48.752;12.922;2024-02-15T12:11:40;4.85;;;3.10;;
78288;SDS011;67539;48.752;12.922;2024-02-15T12:14:26;6.05;;;3.15;;
78288;SDS011;67539;48.752;12.922;2024-02-15T12:17:12;4.63;;;3.47;;
78288;SDS011;67539;48.752;12.922;2024-02-15T12:19:59;5.10;;;3.33;;
78288;SDS011;67539;48.752;12.922;2024-02-15T12:22:35;5.53;;;3.83;;
78288;SDS011;67539;48.752;12.922;2024-02-15T12:25:07;5.65;;;3.50;;
78288;SDS011;67539;48.752;12.922;2024-02-15T12:27:39;7.30;;;4.90;;
78288;SDS011;67539;48.752;12.922;2024-02-15T12:30:12;6.05;;;5.45;;
78288;SDS011;67539;48.752;12.922;2024-02-15T12:32:47;5.00;;;3.83;;
78288;SDS011;67539;48.752;12.922;2024-02-15T12:35:16;8.15;;;6.35;;
78288;SDS011;67539;48.752;12.922;2024-02-15T12:37:48;6.80;;;4.70;;
78288;SDS011;67539;48.752;12.922;2024-02-15T12:40:30;5.88;;;4.60;;
78288;SDS011;67539;48.752;12.922;2024-02-15T12:42:59;6.45;;;3.75;;
78288;SDS011;67539;48.752;12.922;2024-02-15T12:45:27;6.70;;;4.78;;
78288;SDS011;67539;48.752;12.922;2024-02-15T12:47:56;4.97;;;3.75;;
78288;SDS011;67539;48.752;12.922;2024-02-15T12:50:27;7.47;;;4.85;;
78288;SDS011;67539;48.752;12.922;2024-02-15T12:52:59;7.10;;;4.10;;
78288;SDS011;67539;48.752;12.922;2024-02-15T12:55:29;5.18;;;4.38;;
78288;SDS011;67539;48.752;12.922;2024-02-15T12:58:02;6.35;;;4.88;;
78288;SDS011;67539;48.752;12.922;2024-02-15T13:00:35;5.20;;;4.70;;
78288;SDS011;67539;48.752;12.922;2024-02-15T13:03:07;7.78;;;4.45;;
78288;SDS011;67539;48.752;12.922;2024-02-15T13:05:38;4.20;;;3.80;;
78288;SDS011;67539;48.752;12.922;2024-02-15T13:08:09;5.07;;;3.58;;
78288;SDS011;67539;48.752;12.922;2024-02-15T13:10:41;6.38;;;3.17;;
78288;SDS011;67539;48.752;12.922;2024-02-15T13:13:10;4.82;;;3.65;;
78288;SDS011;67539;48.752;12.922;2024-02-15T13:15:41;4.85;;;3.65;;
78288;SDS011;67539;48.752;12.922;2024-02-15T13:18:10;6.68;;;3.70;;
78288;SDS011;67539;48.752;12.922;2024-02-15T13:20:41;5.68;;;3.17;;
78288;SDS011;67539;48.752;12.922;2024-02-15T13:23:10;4.10;;;3.08;;
78288;SDS011;67539;48.752;12.922;2024-02-15T13:25:46;4.93;;;3.55;;
78288;SDS011;67539;48.752;12.922;2024-02-15T13:28:15;4.32;;;2.50;;
78288;SDS011;67539;48.752;12.922;2024-02-15T13:30:43;4.75;;;2.78;;
78288;SDS011;67539;48.752;12.922;2024-02-15T13:33:12;3.65;;;2.20;;
78288;SDS011;67539;48.752;12.922;2024-02-15T13:35:41;3.60;;;2.28;;
78288;SDS011;67539;48.752;12.922;2024-02-15T13:38:11;4.85;;;3.28;;
78288;SDS011;67539;48.752;12.922;2024-02-15T13:40:49;6.05;;;2.55;;
78288;SDS011;67539;48.752;12.922;2024-02-15T13:43:17;5.10;;;2.30;;
78288;SDS011;67539;48.752;12.922;2024-02-15T13:45:46;4.22;;;2.65;;
78288;SDS011;67539;48.752;12.922;2024-02-15T13:48:15;3.88;;;2.58;;
78288;SDS011;67539;48.752;12.922;2024-02-15T13:50:43;4.13;;;2.58;;
78288;SDS011;67539;48.752;12.922;2024-02-15T13:53:13;3.92;;;2.30;;
78288;SDS011;67539;48.752;12.922;2024-02-15T13:55:42;5.05;;;2.40;;
78288;SDS011;67539;48.752;12.922;2024-02-15T13:58:10;4.18;;;2.30;;
78288;SDS011;67539;48.752;12.922;2024-02-15T14:00:39;4.20;;;2.15;;
78288;SDS011;67539;48.752;12.922;2024-02-15T14:03:10;6.05;;;1.88;;
78288;SDS011;67539;48.752;12.922;2024-02-15T14:05:39;2.88;;;2.00;;
78288;SDS011;67539;48.752;12.922;2024-02-15T14:08:09;3.28;;;1.63;;
78288;SDS011;67539;48.752;12.922;2024-02-15T14:10:39;3.60;;;1.65;;
78288;SDS011;67539;48.752;12.922;2024-02-15T14:13:07;3.38;;;2.30;;
78288;SDS011;67539;48.752;12.922;2024-02-15T14:15:37;2.15;;;1.50;;
78288;SDS011;67539;48.752;12.922;2024-02-15T14:18:07;2.95;;;1.75;;
78288;SDS011;67539;48.752;12.922;2024-02-15T14:20:40;2.40;;;1.60;;
78288;SDS011;67539;48.752;12.922;2024-02-15T14:23:09;2.92;;;1.40;;
78288;SDS011;67539;48.752;12.922;2024-02-15T14:25:42;2.97;;;1.55;;
78288;SDS011;67539;48.752;12.922;2024-02-15T14:28:11;2.35;;;1.20;;
78288;SDS011;67539;48.752;12.922;2024-02-15T14:30:41;1.90;;;1.08;;
78288;SDS011;67539;48.752;12.922;2024-02-15T14:33:27;3.65;;;1.30;;
78288;SDS011;67539;48.752;12.922;2024-02-15T14:36:01;2.90;;;1.23;;
78288;SDS011;67539;48.752;12.922;2024-02-15T14:38:31;2.63;;;1.05;;
78288;SDS011;67539;48.752;12.922;2024-02-15T14:41:02;1.88;;;1.08;;
78288;SDS011;67539;48.752;12.922;2024-02-15T14:43:34;3.45;;;1.20;;
78288;SDS011;67539;48.752;12.922;2024-02-15T14:46:02;3.22;;;1.38;;
78288;SDS011;67539;48.752;12.922;2024-02-15T14:48:32;4.32;;;0.90;;
78288;SDS011;67539;48.752;12.922;2024-02-15T14:51:00;1.63;;;0.90;;
78288;SDS011;67539;48.752;12.922;2024-02-15T14:53:29;2.13;;;1.10;;
78288;SDS011;67539;48.752;12.922;2024-02-15T14:55:58;3.55;;;1.33;;
78288;SDS011;67539;48.752;12.922;2024-02-15T14:58:27;2.90;;;1.38;;
78288;SDS011;67539;48.752;12.922;2024-02-15T15:00:55;2.63;;;1.30;;
78288;SDS011;67539;48.752;12.922;2024-02-15T15:03:29;2.95;;;1.02;;
78288;SDS011;67539;48.752;12.922;2024-02-15T15:05:59;2.13;;;1.40;;
78288;SDS011;67539;48.752;12.922;2024-02-15T15:08:44;1.73;;;1.20;;
78288;SDS011;67539;48.752;12.922;2024-02-15T15:11:30;2.53;;;1.30;;
78288;SDS011;67539;48.752;12.922;2024-02-15T15:14:17;2.45;;;1.95;;